createdAt,value
2018-11-14T00:00:23.904Z,9.02
2018-11-14T00:01:23.892Z,9.02
2018-11-14T00:02:23.884Z,9.02
2018-11-14T00:03:23.865Z,9.08
2018-11-14T00:04:23.850Z,9.13
2018-11-14T00:05:23.842Z,9.10
2018-11-14T00:06:23.836Z,9.10
2018-11-14T00:07:23.814Z,9.05
2018-11-14T00:08:23.799Z,9.14
2018-11-14T00:09:23.841Z,9.17
2018-11-14T00:10:23.777Z,9.14
2018-11-14T00:11:23.759Z,9.20
2018-11-14T00:12:23.746Z,9.14
2018-11-14T00:13:23.732Z,9.15
2018-11-14T00:14:23.716Z,9.23
2018-11-14T00:15:23.703Z,9.21
2018-11-14T00:16:23.690Z,9.10
2018-11-14T00:17:23.678Z,9.21
2018-11-14T00:18:23.664Z,9.20
2018-11-14T00:19:23.664Z,9.17
2018-11-14T00:20:23.634Z,9.18
2018-11-14T00:21:23.621Z,9.17
2018-11-14T00:22:23.619Z,9.21
2018-11-14T00:23:23.603Z,9.24
2018-11-14T00:24:23.595Z,9.15
2018-11-14T00:25:23.566Z,9.23
2018-11-14T00:26:23.558Z,9.15
2018-11-14T00:27:23.541Z,9.11
2018-11-14T00:28:23.526Z,9.13
2018-11-14T00:29:23.554Z,9.10
2018-11-14T00:30:23.501Z,9.08
2018-11-14T00:31:23.487Z,9.08
2018-11-14T00:32:23.472Z,9.08
2018-11-14T00:33:23.461Z,9.11
2018-11-14T00:34:23.444Z,9.05
2018-11-14T00:35:23.435Z,9.11
2018-11-14T00:36:23.419Z,9.11
2018-11-14T00:37:23.403Z,9.10
2018-11-14T00:38:23.391Z,9.08
2018-11-14T00:39:23.380Z,9.08
2018-11-14T00:40:23.365Z,9.08
2018-11-14T00:41:23.356Z,8.95
2018-11-14T00:42:23.336Z,8.96
2018-11-14T00:43:23.324Z,8.92
2018-11-14T00:44:23.314Z,9.08
2018-11-14T00:45:23.297Z,8.91
2018-11-14T00:46:23.283Z,8.89
2018-11-14T00:47:23.273Z,8.91
2018-11-14T00:48:23.266Z,8.86
2018-11-14T00:49:23.238Z,8.79
2018-11-14T00:50:23.229Z,8.79
2018-11-14T00:51:23.217Z,8.80
2018-11-14T00:52:23.199Z,8.70
2018-11-14T00:53:23.186Z,8.70
2018-11-14T00:54:23.172Z,8.76
2018-11-14T00:55:23.158Z,8.70
2018-11-14T00:56:23.146Z,8.73
2018-11-14T00:57:23.131Z,8.76
2018-11-14T00:58:23.122Z,8.70
2018-11-14T00:59:23.108Z,8.71
2018-11-14T01:00:23.095Z,8.70
2018-11-14T01:01:23.116Z,8.77
2018-11-14T01:02:23.063Z,8.79
2018-11-14T01:03:23.051Z,8.81
2018-11-14T01:04:23.038Z,8.80
2018-11-14T01:05:23.020Z,8.80
2018-11-14T01:06:23.012Z,8.83
2018-11-14T01:07:22.996Z,8.81
2018-11-14T01:08:22.983Z,8.84
2018-11-14T01:09:22.967Z,8.81
2018-11-14T01:10:22.962Z,8.77
2018-11-14T01:11:22.941Z,8.79
2018-11-14T01:12:22.928Z,8.80
2018-11-14T01:13:22.938Z,8.84
2018-11-14T01:14:22.892Z,8.81
2018-11-14T01:15:22.884Z,8.74
2018-11-14T01:16:22.866Z,8.84
2018-11-14T01:17:22.860Z,8.70
2018-11-14T01:18:22.842Z,8.79
2018-11-14T01:19:22.829Z,8.71
2018-11-14T01:20:22.819Z,8.84
2018-11-14T01:21:22.802Z,8.80
2018-11-14T01:22:22.785Z,8.74
2018-11-14T01:23:22.771Z,8.76
2018-11-14T01:24:22.756Z,8.83
2018-11-14T01:25:22.747Z,8.77
2018-11-14T01:26:22.729Z,8.84
2018-11-14T01:27:22.947Z,8.86
2018-11-14T01:28:22.703Z,8.77
2018-11-14T01:29:22.692Z,8.71
2018-11-14T01:30:22.678Z,8.80
2018-11-14T01:31:22.663Z,8.79
2018-11-14T01:32:22.651Z,8.81
2018-11-14T01:33:22.631Z,8.79
2018-11-14T01:34:22.619Z,8.65
2018-11-14T01:35:22.610Z,8.66
2018-11-14T01:36:22.595Z,8.81
2018-11-14T01:37:22.577Z,8.84
2018-11-14T01:38:22.571Z,8.84
2018-11-14T01:39:22.552Z,8.87
2018-11-14T01:40:22.538Z,8.79
2018-11-14T01:41:22.521Z,8.77
2018-11-14T01:42:22.508Z,8.80
2018-11-14T01:43:22.496Z,8.89
2018-11-14T01:44:22.486Z,8.87
2018-11-14T01:45:22.465Z,8.81
2018-11-14T01:46:22.453Z,8.79
2018-11-14T01:47:22.439Z,8.83
2018-11-14T01:48:22.433Z,8.80
2018-11-14T01:49:22.411Z,8.77
2018-11-14T01:50:22.394Z,8.79
2018-11-14T01:51:22.383Z,8.81
2018-11-14T01:52:22.369Z,8.77
2018-11-14T01:53:22.356Z,8.76
2018-11-14T01:54:22.339Z,8.73
2018-11-14T01:55:22.329Z,8.65
2018-11-14T01:56:22.320Z,8.63
2018-11-14T01:57:22.297Z,8.71
2018-11-14T01:58:22.291Z,8.71
2018-11-14T01:59:22.272Z,8.73
2018-11-14T02:00:22.262Z,8.65
2018-11-14T02:01:22.239Z,8.71
2018-11-14T02:02:22.233Z,8.76
2018-11-14T02:03:22.213Z,8.74
2018-11-14T02:04:22.206Z,8.83
2018-11-14T02:05:22.187Z,8.76
2018-11-14T02:06:22.175Z,8.70
2018-11-14T02:07:22.164Z,8.73
2018-11-14T02:08:22.148Z,8.80
2018-11-14T02:09:22.128Z,8.74
2018-11-14T02:10:22.113Z,8.73
2018-11-14T02:11:22.106Z,8.73
2018-11-14T02:12:22.094Z,8.79
2018-11-14T02:13:22.074Z,8.63
2018-11-14T02:14:22.066Z,8.73
2018-11-14T02:15:22.056Z,8.76
2018-11-14T02:16:22.034Z,8.65
2018-11-14T02:17:22.020Z,8.71
2018-11-14T02:18:22.008Z,8.70
2018-11-14T02:19:21.993Z,8.74
2018-11-14T02:20:21.979Z,8.63
2018-11-14T02:21:21.962Z,8.65
2018-11-14T02:22:21.954Z,8.65
2018-11-14T02:23:21.940Z,8.58
2018-11-14T02:24:21.925Z,8.58
2018-11-14T02:25:21.907Z,8.62
2018-11-14T02:26:21.897Z,8.55
2018-11-14T02:27:21.882Z,8.61
2018-11-14T02:28:21.868Z,8.62
2018-11-14T02:29:21.851Z,8.50
2018-11-14T02:30:21.840Z,8.56
2018-11-14T02:31:21.824Z,8.59
2018-11-14T02:32:21.813Z,8.63
2018-11-14T02:33:21.801Z,8.50
2018-11-14T02:34:21.781Z,8.48
2018-11-14T02:35:21.768Z,8.43
2018-11-14T02:36:21.756Z,8.48
2018-11-14T02:37:21.741Z,8.48
2018-11-14T02:38:21.726Z,8.41
2018-11-14T02:39:21.713Z,8.30
2018-11-14T02:40:21.699Z,8.29
2018-11-14T02:41:21.679Z,8.30
2018-11-14T02:42:21.668Z,8.23
2018-11-14T02:43:21.658Z,8.33
2018-11-14T02:44:21.636Z,8.30
2018-11-14T02:45:21.633Z,8.36
2018-11-14T02:46:21.613Z,8.29
2018-11-14T02:47:21.598Z,8.30
2018-11-14T02:48:21.587Z,8.29
2018-11-14T02:49:21.572Z,8.22
2018-11-14T02:50:21.560Z,8.38
2018-11-14T02:51:21.544Z,8.34
2018-11-14T02:52:21.565Z,8.33
2018-11-14T02:53:21.510Z,8.33
2018-11-14T02:54:21.499Z,8.23
2018-11-14T02:55:21.491Z,8.34
2018-11-14T02:56:21.473Z,8.34
2018-11-14T02:57:21.459Z,8.34
2018-11-14T02:58:21.449Z,8.28
2018-11-14T02:59:21.434Z,8.37
2018-11-14T03:00:21.418Z,8.38
2018-11-14T03:01:21.400Z,8.25
2018-11-14T03:02:21.390Z,8.30
2018-11-14T03:03:21.371Z,8.36
2018-11-14T03:04:21.373Z,8.25
2018-11-14T03:05:21.344Z,8.34
2018-11-14T03:06:21.328Z,8.22
2018-11-14T03:07:21.316Z,8.20
2018-11-14T03:08:21.301Z,8.28
2018-11-14T03:09:21.284Z,8.30
2018-11-14T03:10:21.273Z,8.18
2018-11-14T03:11:21.260Z,8.16
2018-11-14T03:12:21.364Z,8.19
2018-11-14T03:13:21.228Z,8.15
2018-11-14T03:14:21.222Z,8.19
2018-11-14T03:15:21.199Z,8.22
2018-11-14T03:16:21.192Z,8.19
2018-11-14T03:17:21.179Z,8.16
2018-11-14T03:18:21.168Z,8.04
2018-11-14T03:19:21.147Z,8.15
2018-11-14T03:20:21.172Z,8.11
2018-11-14T03:21:21.118Z,8.04
2018-11-14T03:22:21.106Z,8.07
2018-11-14T03:23:21.088Z,8.02
2018-11-14T03:24:21.072Z,8.02
2018-11-14T03:25:21.065Z,8.04
2018-11-14T03:26:21.047Z,8.04
2018-11-14T03:27:21.031Z,8.05
2018-11-14T03:28:21.023Z,8.02
2018-11-14T03:29:21.009Z,8.02
2018-11-14T03:30:20.995Z,8.04
2018-11-14T03:31:20.981Z,8.00
2018-11-14T03:32:20.966Z,7.98
2018-11-14T03:33:20.949Z,7.98
2018-11-14T03:34:20.931Z,8.01
2018-11-14T03:35:20.921Z,8.01
2018-11-14T03:36:20.911Z,8.04
2018-11-14T03:37:20.895Z,7.98
2018-11-14T03:38:20.877Z,8.04
2018-11-14T03:39:20.862Z,8.02
2018-11-14T03:40:20.851Z,8.05
2018-11-14T03:41:20.838Z,8.04
2018-11-14T03:42:20.819Z,8.01
2018-11-14T03:43:20.809Z,8.01
2018-11-14T03:44:20.795Z,7.93
2018-11-14T03:45:20.776Z,8.01
2018-11-14T03:46:20.764Z,7.90
2018-11-14T03:47:20.752Z,7.82
2018-11-14T03:48:20.742Z,7.92
2018-11-14T03:49:20.726Z,7.87
2018-11-14T03:50:20.707Z,7.86
2018-11-14T03:51:20.701Z,7.82
2018-11-14T03:52:20.681Z,7.85
2018-11-14T03:53:20.668Z,7.69
2018-11-14T03:54:20.649Z,7.68
2018-11-14T03:55:20.636Z,7.69
2018-11-14T03:56:20.616Z,7.64
2018-11-14T03:57:20.611Z,7.67
2018-11-14T03:58:20.614Z,7.63
2018-11-14T03:59:20.581Z,7.67
2018-11-14T04:00:20.569Z,7.57
2018-11-14T04:01:20.549Z,7.72
2018-11-14T04:02:20.540Z,7.61
2018-11-14T04:03:20.516Z,7.71
2018-11-14T04:04:20.508Z,7.64
2018-11-14T04:05:20.551Z,7.74
2018-11-14T04:06:20.488Z,7.71
2018-11-14T04:07:20.464Z,7.68
2018-11-14T04:08:20.449Z,7.72
2018-11-14T04:09:20.499Z,7.79
2018-11-14T04:10:20.428Z,7.69
2018-11-14T04:11:20.411Z,7.77
2018-11-14T04:12:20.397Z,7.63
2018-11-14T04:13:20.378Z,7.79
2018-11-14T04:14:20.360Z,7.77
2018-11-14T04:15:20.348Z,7.58
2018-11-14T04:16:20.336Z,7.68
2018-11-14T04:17:20.320Z,7.72
2018-11-14T04:18:20.301Z,7.64
2018-11-14T04:19:20.290Z,7.60
2018-11-14T04:20:20.279Z,7.57
2018-11-14T04:21:20.265Z,7.60
2018-11-14T04:22:20.249Z,7.50
2018-11-14T04:23:20.233Z,7.63
2018-11-14T04:24:20.223Z,7.63
2018-11-14T04:25:20.208Z,7.61
2018-11-14T04:26:20.194Z,7.58
2018-11-14T04:27:20.176Z,7.64
2018-11-14T04:28:20.164Z,7.58
2018-11-14T04:29:20.149Z,7.58
2018-11-14T04:30:20.130Z,7.50
2018-11-14T04:31:20.116Z,7.55
2018-11-14T04:32:20.102Z,7.55
2018-11-14T04:33:20.089Z,7.63
2018-11-14T04:34:20.076Z,7.58
2018-11-14T04:35:20.062Z,7.64
2018-11-14T04:36:20.045Z,7.67
2018-11-14T04:37:20.031Z,7.68
2018-11-14T04:38:20.013Z,7.67
2018-11-14T04:39:20.002Z,7.68
2018-11-14T04:40:20.005Z,7.68
2018-11-14T04:41:19.977Z,7.69
2018-11-14T04:42:19.953Z,7.67
2018-11-14T04:43:19.947Z,7.68
2018-11-14T04:44:19.936Z,7.61
2018-11-14T04:45:19.914Z,7.71
2018-11-14T04:46:19.898Z,7.61
2018-11-14T04:47:19.886Z,7.64
2018-11-14T04:48:19.868Z,7.74
2018-11-14T04:49:19.857Z,7.64
2018-11-14T04:50:19.844Z,7.71
2018-11-14T04:51:19.832Z,7.67
2018-11-14T04:52:19.817Z,7.64
2018-11-14T04:53:19.795Z,7.69
2018-11-14T04:54:19.791Z,7.63
2018-11-14T04:55:19.766Z,7.67
2018-11-14T04:56:19.756Z,7.67
2018-11-14T04:57:19.736Z,7.63
2018-11-14T04:58:19.726Z,7.61
2018-11-14T04:59:19.710Z,7.64
2018-11-14T05:00:19.698Z,7.64
2018-11-14T05:01:19.677Z,7.69
2018-11-14T05:02:19.722Z,7.72
2018-11-14T05:03:19.653Z,7.72
2018-11-14T05:04:19.632Z,7.71
2018-11-14T05:05:19.619Z,7.72
2018-11-14T05:06:19.606Z,7.74
2018-11-14T05:07:19.599Z,7.60
2018-11-14T05:08:19.583Z,7.64
2018-11-14T05:09:19.565Z,7.53
2018-11-14T05:10:19.541Z,7.58
2018-11-14T05:11:19.531Z,7.53
2018-11-14T05:12:19.515Z,7.55
2018-11-14T05:13:19.510Z,7.49
2018-11-14T05:14:19.490Z,7.52
2018-11-14T05:15:19.472Z,7.49
2018-11-14T05:16:19.469Z,7.50
2018-11-14T05:17:19.444Z,7.48
2018-11-14T05:18:19.433Z,7.46
2018-11-14T05:19:19.415Z,7.30
2018-11-14T05:20:19.398Z,7.31
2018-11-14T05:21:19.390Z,7.34
2018-11-14T05:22:19.380Z,7.34
2018-11-14T05:23:19.356Z,7.28
2018-11-14T05:24:19.356Z,7.28
2018-11-14T05:25:19.331Z,7.27
2018-11-14T05:26:19.315Z,7.23
2018-11-14T05:27:19.295Z,7.28
2018-11-14T05:28:19.283Z,7.21
2018-11-14T05:29:19.271Z,7.16
2018-11-14T05:30:19.255Z,7.25
2018-11-14T05:31:19.258Z,7.23
2018-11-14T05:32:19.225Z,7.21
2018-11-14T05:33:19.209Z,7.16
2018-11-14T05:34:19.191Z,7.16
2018-11-14T05:35:19.180Z,7.21
2018-11-14T05:36:19.167Z,7.20
2018-11-14T05:37:19.153Z,7.17
2018-11-14T05:38:19.132Z,7.20
2018-11-14T05:39:19.125Z,7.13
2018-11-14T05:40:19.260Z,7.21
2018-11-14T05:41:19.092Z,7.16
2018-11-14T05:42:19.077Z,7.09
2018-11-14T05:43:19.065Z,7.09
2018-11-14T05:44:19.053Z,7.17
2018-11-14T05:45:19.052Z,7.12
2018-11-14T05:46:19.015Z,7.12
2018-11-14T05:47:19.001Z,7.09
2018-11-14T05:48:18.986Z,7.07
2018-11-14T05:49:18.970Z,7.09
2018-11-14T05:50:18.956Z,7.09
2018-11-14T05:51:18.945Z,6.99
2018-11-14T05:52:18.930Z,7.03
2018-11-14T05:53:18.916Z,6.98
2018-11-14T05:54:18.903Z,7.02
2018-11-14T05:55:18.884Z,7.02
2018-11-14T05:56:18.869Z,6.98
2018-11-14T05:57:18.860Z,6.85
2018-11-14T05:58:18.840Z,7.02
2018-11-14T05:59:18.827Z,7.02
2018-11-14T06:00:18.811Z,6.97
2018-11-14T06:01:18.793Z,7.02
2018-11-14T06:02:18.777Z,7.02
2018-11-14T06:03:18.771Z,7.03
2018-11-14T06:04:18.752Z,6.97
2018-11-14T06:05:18.786Z,7.02
2018-11-14T06:06:18.718Z,6.99
2018-11-14T06:07:18.815Z,6.98
2018-11-14T06:08:18.698Z,6.99
2018-11-14T06:09:18.675Z,7.09
2018-11-14T06:10:18.662Z,7.07
2018-11-14T06:11:18.652Z,7.12
2018-11-14T06:12:18.640Z,7.02
2018-11-14T06:13:18.615Z,7.06
2018-11-14T06:14:18.605Z,7.02
2018-11-14T06:15:18.737Z,6.95
2018-11-14T06:16:18.568Z,7.03
2018-11-14T06:17:18.554Z,7.02
2018-11-14T06:18:18.541Z,7.02
2018-11-14T06:19:18.530Z,7.02
2018-11-14T06:20:18.520Z,7.03
2018-11-14T06:21:18.501Z,6.99
2018-11-14T06:22:18.485Z,6.94
2018-11-14T06:23:18.469Z,6.97
2018-11-14T06:24:18.454Z,6.94
2018-11-14T06:25:18.436Z,6.95
2018-11-14T06:26:18.422Z,6.99
2018-11-14T06:27:18.415Z,6.98
2018-11-14T06:28:18.395Z,7.02
2018-11-14T06:29:18.378Z,7.03
2018-11-14T06:30:18.364Z,7.03
2018-11-14T06:31:18.346Z,6.97
2018-11-14T06:32:18.340Z,6.99
2018-11-14T06:33:18.316Z,6.97
2018-11-14T06:34:18.304Z,6.98
2018-11-14T06:35:18.288Z,6.95
2018-11-14T06:36:18.274Z,6.97
2018-11-14T06:37:18.262Z,7.09
2018-11-14T06:38:18.248Z,6.99
2018-11-14T06:39:18.229Z,7.02
2018-11-14T06:40:18.219Z,6.94
2018-11-14T06:41:18.202Z,7.10
2018-11-14T06:42:18.185Z,7.06
2018-11-14T06:43:18.173Z,7.07
2018-11-14T06:44:18.154Z,7.10
2018-11-14T06:45:18.144Z,7.10
2018-11-14T06:46:18.120Z,7.07
2018-11-14T06:47:18.116Z,7.09
2018-11-14T06:48:18.096Z,7.13
2018-11-14T06:49:18.080Z,7.10
2018-11-14T06:50:18.068Z,7.07
2018-11-14T06:51:18.054Z,7.07
2018-11-14T06:52:18.038Z,7.10
2018-11-14T06:53:18.021Z,7.17
2018-11-14T06:54:18.007Z,7.02
2018-11-14T06:55:17.996Z,7.09
2018-11-14T06:56:17.972Z,7.12
2018-11-14T06:57:17.959Z,7.09
2018-11-14T06:58:17.944Z,6.99
2018-11-14T06:59:18.021Z,7.10
2018-11-14T07:00:17.918Z,7.10
2018-11-14T07:01:17.903Z,6.99
2018-11-14T07:02:17.887Z,7.09
2018-11-14T07:03:17.938Z,6.99
2018-11-14T07:04:17.857Z,6.98
2018-11-14T07:05:17.991Z,6.95
2018-11-14T07:06:17.930Z,7.03
2018-11-14T07:07:17.814Z,7.10
2018-11-14T07:08:17.800Z,7.12
2018-11-14T07:09:17.780Z,7.12
2018-11-14T07:10:17.764Z,7.09
2018-11-14T07:11:17.755Z,7.09
2018-11-14T07:12:17.741Z,7.16
2018-11-14T07:13:17.722Z,7.17
2018-11-14T07:14:17.707Z,7.21
2018-11-14T07:15:17.696Z,7.12
2018-11-14T07:16:17.681Z,7.20
2018-11-14T07:17:17.661Z,7.17
2018-11-14T07:18:17.651Z,7.17
2018-11-14T07:19:17.632Z,7.20
2018-11-14T07:20:17.620Z,7.16
2018-11-14T07:21:17.599Z,7.17
2018-11-14T07:22:17.585Z,7.15
2018-11-14T07:23:17.581Z,7.16
2018-11-14T07:24:17.559Z,7.16
2018-11-14T07:25:17.545Z,7.20
2018-11-14T07:26:17.530Z,7.17
2018-11-14T07:27:17.514Z,7.20
2018-11-14T07:28:17.502Z,7.17
2018-11-14T07:29:17.489Z,7.23
2018-11-14T07:30:17.472Z,7.21
2018-11-14T07:31:17.458Z,7.17
2018-11-14T07:32:17.524Z,7.16
2018-11-14T07:33:17.429Z,7.24
2018-11-14T07:34:17.407Z,7.20
2018-11-14T07:35:17.397Z,7.17
2018-11-14T07:36:17.379Z,7.25
2018-11-14T07:37:17.364Z,7.32
2018-11-14T07:38:17.351Z,7.17
2018-11-14T07:39:17.339Z,7.24
2018-11-14T07:40:17.329Z,7.25
2018-11-14T07:41:17.305Z,7.32
2018-11-14T07:42:17.296Z,7.39
2018-11-14T07:43:17.275Z,7.30
2018-11-14T07:44:17.263Z,7.24
2018-11-14T07:45:17.250Z,7.25
2018-11-14T07:46:17.235Z,7.24
2018-11-14T07:47:17.217Z,7.32
2018-11-14T07:48:17.209Z,7.28
2018-11-14T07:49:17.199Z,7.23
2018-11-14T07:50:17.198Z,7.28
2018-11-14T07:51:17.156Z,7.31
2018-11-14T07:52:17.142Z,7.37
2018-11-14T07:53:17.143Z,7.42
2018-11-14T07:54:17.114Z,7.53
2018-11-14T07:55:17.101Z,7.53
2018-11-14T07:56:17.086Z,7.67
2018-11-14T07:57:17.065Z,7.75
2018-11-14T07:58:17.055Z,7.80
2018-11-14T07:59:17.041Z,7.89
2018-11-14T08:00:17.027Z,8.07
2018-11-14T08:01:17.006Z,8.05
2018-11-14T08:02:17.070Z,8.12
2018-11-14T08:03:16.978Z,8.15
2018-11-14T08:04:16.966Z,8.20
2018-11-14T08:05:16.950Z,8.38
2018-11-14T08:06:16.938Z,8.33
2018-11-14T08:07:16.922Z,8.52
2018-11-14T08:08:16.989Z,8.62
2018-11-14T08:09:16.894Z,8.77
2018-11-14T08:10:16.882Z,8.73
2018-11-14T08:11:16.867Z,8.73
2018-11-14T08:12:16.847Z,8.77
2018-11-14T08:13:16.835Z,8.79
2018-11-14T08:14:16.815Z,8.84
2018-11-14T08:15:16.807Z,8.84
2018-11-14T08:16:16.790Z,8.94
2018-11-14T08:17:16.782Z,9.14
2018-11-14T08:18:16.769Z,9.26
2018-11-14T08:19:16.752Z,9.40
2018-11-14T08:20:16.735Z,9.54
2018-11-14T08:21:16.727Z,9.60
2018-11-14T08:22:16.706Z,9.65
2018-11-14T08:23:16.694Z,9.81
2018-11-14T08:24:16.677Z,9.87
2018-11-14T08:25:16.661Z,9.99
2018-11-14T08:26:16.649Z,10.02
2018-11-14T08:27:16.631Z,10.14
2018-11-14T08:28:16.626Z,10.22
2018-11-14T08:29:16.602Z,10.25
2018-11-14T08:30:16.593Z,10.15
2018-11-14T08:31:16.578Z,10.44
2018-11-14T08:32:16.567Z,10.45
2018-11-14T08:33:16.551Z,10.56
2018-11-14T08:34:16.538Z,10.53
2018-11-14T08:35:16.522Z,10.52
2018-11-14T08:36:16.507Z,10.56
2018-11-14T08:37:16.498Z,10.55
2018-11-14T08:38:16.485Z,10.48
2018-11-14T08:39:16.505Z,10.38
2018-11-14T08:40:16.451Z,10.33
2018-11-14T08:41:16.441Z,10.18
2018-11-14T08:42:16.427Z,10.18
2018-11-14T08:43:16.419Z,10.33
2018-11-14T08:44:16.400Z,10.29
2018-11-14T08:45:16.384Z,10.41
2018-11-14T08:46:16.379Z,10.45
2018-11-14T08:47:16.356Z,10.55
2018-11-14T08:48:16.346Z,10.56
2018-11-14T08:49:16.338Z,10.63
2018-11-14T08:50:16.388Z,10.91
2018-11-14T08:51:16.310Z,11.11
2018-11-14T08:52:16.291Z,11.28
2018-11-14T08:53:16.276Z,11.37
2018-11-14T08:54:16.276Z,11.44
2018-11-14T08:55:16.259Z,11.55
2018-11-14T08:56:16.239Z,11.65
2018-11-14T08:57:16.217Z,11.83
2018-11-14T08:58:16.212Z,11.90
2018-11-14T08:59:16.195Z,11.76
2018-11-14T09:00:16.183Z,11.73
2018-11-14T09:01:16.176Z,11.55
2018-11-14T09:02:16.158Z,11.44
2018-11-14T09:03:16.146Z,11.24
2018-11-14T09:04:16.132Z,11.28
2018-11-14T09:05:16.118Z,11.35
2018-11-14T09:06:16.141Z,11.40
2018-11-14T09:07:16.089Z,11.40
2018-11-14T09:08:16.083Z,11.61
2018-11-14T09:09:16.065Z,11.62
2018-11-14T09:10:16.052Z,11.83
2018-11-14T09:11:16.121Z,11.95
2018-11-14T09:12:16.073Z,12.01
2018-11-14T09:13:16.016Z,12.14
2018-11-14T09:14:16.021Z,12.28
2018-11-14T09:15:15.991Z,12.41
2018-11-14T09:16:15.978Z,12.52
2018-11-14T09:17:15.972Z,12.86
2018-11-14T09:18:16.022Z,12.92
2018-11-14T09:19:15.940Z,13.08
2018-11-14T09:20:15.925Z,13.14
2018-11-14T09:21:15.913Z,13.32
2018-11-14T09:22:15.905Z,13.42
2018-11-14T09:23:15.919Z,13.54
2018-11-14T09:24:15.876Z,13.66
2018-11-14T09:25:15.860Z,13.64
2018-11-14T09:26:15.854Z,13.67
2018-11-14T09:27:15.842Z,13.73
2018-11-14T09:28:15.831Z,13.71
2018-11-14T09:29:15.810Z,13.69
2018-11-14T09:30:15.800Z,13.66
2018-11-14T09:31:15.796Z,13.66
2018-11-14T09:32:15.776Z,13.70
2018-11-14T09:33:15.914Z,13.75
2018-11-14T09:34:15.752Z,13.77
2018-11-14T09:35:15.741Z,13.81
2018-11-14T09:36:15.727Z,13.82
2018-11-14T09:37:15.727Z,13.92
2018-11-14T09:38:15.705Z,13.84
2018-11-14T09:39:15.688Z,13.82
2018-11-14T09:40:15.685Z,13.73
2018-11-14T09:41:15.751Z,13.73
2018-11-14T09:42:15.666Z,13.87
2018-11-14T09:43:15.650Z,13.88
2018-11-14T09:44:15.633Z,14.04
2018-11-14T09:45:15.621Z,14.07
2018-11-14T09:46:15.612Z,14.04
2018-11-14T09:47:15.602Z,13.89
2018-11-14T09:48:15.591Z,13.87
2018-11-14T09:49:15.587Z,14.04
2018-11-14T09:50:15.568Z,14.07
2018-11-14T09:51:15.556Z,13.91
2018-11-14T09:52:15.540Z,13.91
2018-11-14T09:53:15.572Z,13.89
2018-11-14T09:54:15.519Z,14.03
2018-11-14T09:55:15.511Z,14.07
2018-11-14T09:56:15.515Z,14.07
2018-11-14T09:57:15.485Z,14.09
2018-11-14T09:58:15.471Z,14.03
2018-11-14T09:59:15.465Z,14.18
2018-11-14T10:00:15.453Z,14.17
2018-11-14T10:01:15.436Z,14.33
2018-11-14T10:02:15.437Z,14.35
2018-11-14T10:03:15.418Z,14.43
2018-11-14T10:04:15.408Z,14.57
2018-11-14T10:05:15.396Z,14.51
2018-11-14T10:06:15.385Z,14.46
2018-11-14T10:07:15.372Z,14.45
2018-11-14T10:08:15.360Z,14.42
2018-11-14T10:09:15.344Z,14.47
2018-11-14T10:10:15.340Z,14.50
2018-11-14T10:11:15.325Z,14.50
2018-11-14T10:12:15.314Z,14.42
2018-11-14T10:13:15.305Z,14.29
2018-11-14T10:14:15.291Z,14.32
2018-11-14T10:15:15.281Z,14.28
2018-11-14T10:16:15.274Z,14.32
2018-11-14T10:17:15.262Z,14.57
2018-11-14T10:18:15.246Z,14.68
2018-11-14T10:19:15.242Z,14.72
2018-11-14T10:20:15.229Z,14.69
2018-11-14T10:21:15.256Z,14.84
2018-11-14T10:22:15.208Z,14.95
2018-11-14T10:23:15.198Z,14.99
2018-11-14T10:24:15.182Z,15.06
2018-11-14T10:25:15.175Z,15.19
2018-11-14T10:26:15.165Z,15.32
2018-11-14T10:27:15.153Z,15.44
2018-11-14T10:28:15.141Z,15.56
2018-11-14T10:29:15.128Z,15.53
2018-11-14T10:30:15.160Z,15.56
2018-11-14T10:31:15.106Z,15.53
2018-11-14T10:32:15.100Z,15.54
2018-11-14T10:33:15.088Z,15.59
2018-11-14T10:34:15.074Z,15.74
2018-11-14T10:35:15.069Z,15.65
2018-11-14T10:36:15.053Z,15.59
2018-11-14T10:37:15.045Z,15.65
2018-11-14T10:38:15.035Z,15.65
2018-11-14T10:39:15.025Z,15.67
2018-11-14T10:40:15.013Z,15.65
2018-11-14T10:41:15.004Z,15.64
2018-11-14T10:42:14.995Z,15.71
2018-11-14T10:43:14.983Z,15.97
2018-11-14T10:44:14.967Z,16.11
2018-11-14T10:45:14.962Z,16.05
2018-11-14T10:46:14.948Z,15.96
2018-11-14T10:47:14.945Z,15.75
2018-11-14T10:48:14.928Z,15.57
2018-11-14T10:49:14.918Z,15.53
2018-11-14T10:50:14.911Z,15.38
2018-11-14T10:51:14.895Z,15.16
2018-11-14T10:52:14.887Z,14.99
2018-11-14T10:53:14.880Z,14.95
2018-11-14T10:54:14.865Z,14.92
2018-11-14T10:55:14.857Z,14.99
2018-11-14T10:56:14.846Z,14.91
2018-11-14T10:57:14.833Z,14.86
2018-11-14T10:58:14.874Z,14.78
2018-11-14T10:59:14.816Z,14.73
2018-11-14T11:00:14.798Z,14.61
2018-11-14T11:01:14.786Z,14.58
2018-11-14T11:02:14.782Z,14.61
2018-11-14T11:03:14.768Z,14.55
2018-11-14T11:04:14.764Z,14.54
2018-11-14T11:05:14.746Z,14.43
2018-11-14T11:06:14.736Z,14.35
2018-11-14T11:07:14.722Z,14.36
2018-11-14T11:08:14.784Z,14.37
2018-11-14T11:09:14.706Z,14.35
2018-11-14T11:10:14.696Z,14.40
2018-11-14T11:11:14.686Z,14.43
2018-11-14T11:12:14.675Z,14.50
2018-11-14T11:13:14.661Z,14.52
2018-11-14T11:14:14.645Z,14.54
2018-11-14T11:15:14.655Z,14.50
2018-11-14T11:16:14.627Z,14.43
2018-11-14T11:17:14.619Z,14.50
2018-11-14T11:18:14.604Z,14.61
2018-11-14T11:19:14.592Z,14.73
2018-11-14T11:20:14.582Z,14.81
2018-11-14T11:21:14.574Z,15.09
2018-11-14T11:22:14.560Z,15.28
2018-11-14T11:23:14.591Z,15.41
2018-11-14T11:24:14.539Z,15.56
2018-11-14T11:25:14.532Z,15.71
2018-11-14T11:26:14.519Z,15.93
2018-11-14T11:27:14.506Z,16.02
2018-11-14T11:28:14.495Z,16.30
2018-11-14T11:29:14.480Z,16.49
2018-11-14T11:30:14.471Z,16.67
2018-11-14T11:31:14.466Z,16.82
2018-11-14T11:32:14.457Z,17.06
2018-11-14T11:33:14.451Z,17.26
2018-11-14T11:34:14.434Z,17.26
2018-11-14T11:35:14.425Z,17.43
2018-11-14T11:36:14.416Z,17.52
2018-11-14T11:37:14.415Z,17.71
2018-11-14T11:38:14.496Z,17.77
2018-11-14T11:39:14.387Z,17.86
2018-11-14T11:40:14.378Z,17.93
2018-11-14T11:41:14.355Z,18.08
2018-11-14T11:42:14.350Z,18.10
2018-11-14T11:43:14.343Z,18.03
2018-11-14T11:44:14.356Z,17.99
2018-11-14T11:45:14.320Z,18.10
2018-11-14T11:46:14.310Z,18.07
2018-11-14T11:47:14.303Z,17.92
2018-11-14T11:48:14.291Z,17.93
2018-11-14T11:49:14.285Z,18.05
2018-11-14T11:50:14.276Z,18.17
2018-11-14T11:51:14.302Z,18.45
2018-11-14T11:52:14.256Z,18.58
2018-11-14T11:53:14.248Z,18.70
2018-11-14T11:54:14.233Z,18.70
2018-11-14T11:55:14.227Z,18.55
2018-11-14T11:56:14.216Z,18.48
2018-11-14T11:57:14.214Z,18.47
2018-11-14T11:58:14.192Z,18.37
2018-11-14T11:59:14.183Z,18.35
2018-11-14T12:00:14.314Z,18.26
2018-11-14T12:01:14.166Z,18.21
2018-11-14T12:02:14.223Z,18.30
2018-11-14T12:03:14.151Z,18.35
2018-11-14T12:04:14.149Z,18.36
2018-11-14T12:05:14.138Z,18.33
2018-11-14T12:06:14.285Z,18.37
2018-11-14T12:07:14.111Z,18.33
2018-11-14T12:08:14.103Z,18.30
2018-11-14T12:09:14.096Z,18.41
2018-11-14T12:10:14.088Z,18.42
2018-11-14T12:11:14.079Z,18.47
2018-11-14T12:12:14.068Z,18.45
2018-11-14T12:13:14.105Z,18.58
2018-11-14T12:14:14.047Z,18.75
2018-11-14T12:15:14.045Z,18.94
2018-11-14T12:16:14.030Z,18.99
2018-11-14T12:17:14.022Z,19.08
2018-11-14T12:18:14.010Z,18.95
2018-11-14T12:19:14.127Z,19.06
2018-11-14T12:20:13.995Z,19.16
2018-11-14T12:21:13.983Z,19.21
2018-11-14T12:22:13.975Z,19.23
2018-11-14T12:23:13.967Z,19.22
2018-11-14T12:24:13.959Z,19.29
2018-11-14T12:25:13.945Z,19.21
2018-11-14T12:26:13.939Z,19.28
2018-11-14T12:27:13.993Z,19.21
2018-11-14T12:28:13.920Z,19.29
2018-11-14T12:29:13.914Z,19.19
2018-11-14T12:30:14.070Z,18.92
2018-11-14T12:31:13.995Z,18.60
2018-11-14T12:32:13.890Z,18.62
2018-11-14T12:33:13.879Z,18.51
2018-11-14T12:34:13.875Z,18.50
2018-11-14T12:35:13.960Z,18.55
2018-11-14T12:36:13.856Z,18.51
2018-11-14T12:37:13.847Z,18.32
2018-11-14T12:38:13.838Z,18.39
2018-11-14T12:39:13.831Z,18.11
2018-11-14T12:40:13.822Z,18.11
2018-11-14T12:41:13.813Z,18.12
2018-11-14T12:42:13.794Z,18.17
2018-11-14T12:43:13.794Z,18.35
2018-11-14T12:44:13.787Z,18.39
2018-11-14T12:45:13.897Z,18.54
2018-11-14T12:46:13.777Z,18.57
2018-11-14T12:47:13.763Z,18.66
2018-11-14T12:48:13.750Z,18.66
2018-11-14T12:49:13.738Z,18.72
2018-11-14T12:50:13.736Z,18.80
2018-11-14T12:51:13.720Z,18.75
2018-11-14T12:52:13.715Z,18.82
2018-11-14T12:53:13.712Z,18.84
2018-11-14T12:54:13.703Z,18.92
2018-11-14T12:55:13.689Z,18.88
2018-11-14T12:56:13.675Z,18.80
2018-11-14T12:57:13.673Z,18.87
2018-11-14T12:58:13.665Z,18.90
2018-11-14T12:59:13.659Z,18.95
2018-11-14T13:00:13.648Z,18.85
2018-11-14T13:01:13.642Z,18.90
2018-11-14T13:02:13.626Z,18.98
2018-11-14T13:03:13.619Z,18.85
2018-11-14T13:04:13.611Z,18.88
2018-11-14T13:05:13.610Z,18.99
2018-11-14T13:06:13.594Z,19.06
2018-11-14T13:07:13.588Z,19.16
2018-11-14T13:08:13.578Z,19.33
2018-11-14T13:09:13.583Z,19.48